createdAt,value
2019-03-23T00:02:30.651Z,47.93
2019-03-23T00:05:01.299Z,48.23
2019-03-23T00:07:32.020Z,47.47
2019-03-23T00:10:02.680Z,46.70
2019-03-23T00:12:33.416Z,47.77
2019-03-23T00:15:06.957Z,48.77
2019-03-23T00:17:37.483Z,49.80
2019-03-23T00:20:09.238Z,48.30
2019-03-23T00:22:39.840Z,48.80
2019-03-23T00:25:10.715Z,47.60
2019-03-23T00:27:43.914Z,47.77
2019-03-23T00:30:14.998Z,45.53
2019-03-23T00:32:45.592Z,46.60
2019-03-23T00:35:16.404Z,45.13
2019-03-23T00:37:47.017Z,44.97
2019-03-23T00:40:17.549Z,46.77
2019-03-23T00:42:48.196Z,44.67
2019-03-23T00:45:18.774Z,44.77
2019-03-23T00:47:49.343Z,46.17
2019-03-23T00:50:19.943Z,44.23
2019-03-23T00:52:50.534Z,43.50
2019-03-23T00:55:21.236Z,45.07
2019-03-23T00:57:51.866Z,44.23
2019-03-23T01:00:22.641Z,44.97
2019-03-23T01:02:53.407Z,43.00
2019-03-23T01:05:24.135Z,42.40
2019-03-23T01:07:54.988Z,44.83
2019-03-23T01:10:25.651Z,45.00
2019-03-23T01:12:56.214Z,43.80
2019-03-23T01:15:26.793Z,40.77
2019-03-23T01:17:57.381Z,42.00
2019-03-23T01:20:28.073Z,37.87
2019-03-23T01:22:58.781Z,39.43
2019-03-23T01:25:29.196Z,39.30
2019-03-23T01:27:59.773Z,39.57
2019-03-23T01:30:30.441Z,43.23
2019-03-23T01:33:01.059Z,40.00
2019-03-23T01:35:31.659Z,43.13
2019-03-23T01:38:02.287Z,39.23
2019-03-23T01:40:32.985Z,39.63
2019-03-23T01:43:03.586Z,40.77
2019-03-23T01:45:34.151Z,39.70
2019-03-23T01:48:04.826Z,39.23
2019-03-23T01:50:35.361Z,43.07
2019-03-23T01:53:05.904Z,40.43
2019-03-23T01:55:36.513Z,40.23
2019-03-23T01:58:07.259Z,41.50
2019-03-23T02:00:37.959Z,42.73
2019-03-23T02:03:08.746Z,39.97
2019-03-23T02:05:39.258Z,38.23
2019-03-23T02:08:09.843Z,41.83
2019-03-23T02:10:41.935Z,40.47
2019-03-23T02:13:12.745Z,38.07
2019-03-23T02:15:43.345Z,41.73
2019-03-23T02:18:14.004Z,41.10
2019-03-23T02:20:44.599Z,40.10
2019-03-23T02:23:18.051Z,38.40
2019-03-23T02:25:48.565Z,41.33
2019-03-23T02:28:19.164Z,41.40
2019-03-23T02:30:49.811Z,37.27
2019-03-23T02:33:21.949Z,41.97
2019-03-23T02:35:52.511Z,39.97
2019-03-23T02:38:23.018Z,38.50
2019-03-23T02:40:53.660Z,39.10
2019-03-23T02:43:24.264Z,43.33
2019-03-23T02:45:54.888Z,40.23
2019-03-23T02:48:25.704Z,38.60
2019-03-23T02:50:56.331Z,39.20
2019-03-23T02:53:26.972Z,42.83
2019-03-23T02:55:57.607Z,41.60
2019-03-23T02:58:28.257Z,42.57
2019-03-23T03:00:58.938Z,43.03
2019-03-23T03:03:29.541Z,43.60
2019-03-23T03:06:00.293Z,41.97
2019-03-23T03:08:30.965Z,42.00
2019-03-23T03:11:01.596Z,47.07
2019-03-23T03:13:32.148Z,44.87
2019-03-23T03:16:02.809Z,42.67
2019-03-23T03:18:34.598Z,44.63
2019-03-23T03:21:06.356Z,43.83
2019-03-23T03:23:37.898Z,45.00
2019-03-23T03:26:08.517Z,41.57
2019-03-23T03:28:39.053Z,40.30
2019-03-23T03:31:09.570Z,44.90
2019-03-23T03:33:40.145Z,46.70
2019-03-23T03:36:10.939Z,45.80
2019-03-23T03:38:41.655Z,48.80
2019-03-23T03:41:12.399Z,44.87
2019-03-23T03:43:43.085Z,43.97
2019-03-23T03:46:13.720Z,43.63
2019-03-23T03:48:44.313Z,45.33
2019-03-23T03:51:14.883Z,42.13
2019-03-23T03:53:45.543Z,40.47
2019-03-23T03:56:16.031Z,40.90
2019-03-23T03:58:46.677Z,39.97
2019-03-23T04:01:17.286Z,42.07
2019-03-23T04:03:50.077Z,42.93
2019-03-23T04:06:20.938Z,42.20
2019-03-23T04:08:51.617Z,41.87
2019-03-23T04:11:22.211Z,45.50
2019-03-23T04:13:52.637Z,42.33
2019-03-23T04:16:23.188Z,40.70
2019-03-23T04:18:53.754Z,42.03
2019-03-23T04:21:24.441Z,38.80
2019-03-23T04:23:54.936Z,39.93
2019-03-23T04:26:27.092Z,38.60
2019-03-23T04:28:57.627Z,42.23
2019-03-23T04:31:28.222Z,44.27
2019-03-23T04:33:58.775Z,39.03
2019-03-23T04:36:30.194Z,39.37
2019-03-23T04:39:00.769Z,38.83
2019-03-23T04:41:33.213Z,39.10
2019-03-23T04:44:03.793Z,39.63
2019-03-23T04:46:36.069Z,40.40
2019-03-23T04:49:06.673Z,38.40
2019-03-23T04:51:37.233Z,38.47
2019-03-23T04:54:07.860Z,35.10
2019-03-23T04:56:38.445Z,37.87
2019-03-23T04:59:08.995Z,37.30
2019-03-23T05:01:39.607Z,37.63
2019-03-23T05:04:10.061Z,37.67
2019-03-23T05:06:42.540Z,37.23
2019-03-23T05:09:12.829Z,37.20
2019-03-23T05:11:43.468Z,38.30
2019-03-23T05:14:13.953Z,38.30
2019-03-23T05:16:44.507Z,36.60
2019-03-23T05:19:15.186Z,35.17
2019-03-23T05:21:45.734Z,37.30
2019-03-23T05:24:16.290Z,35.53
2019-03-23T05:26:47.101Z,35.50
2019-03-23T05:29:17.556Z,35.97
2019-03-23T05:31:48.135Z,36.63
2019-03-23T05:34:18.857Z,39.17
2019-03-23T05:36:49.336Z,36.70
2019-03-23T05:39:20.991Z,37.13
2019-03-23T05:41:51.619Z,37.10
2019-03-23T05:44:22.187Z,35.27
2019-03-23T05:46:54.390Z,37.60
2019-03-23T05:49:25.118Z,36.13
2019-03-23T05:51:56.951Z,38.70
2019-03-23T05:54:27.430Z,36.93
2019-03-23T05:56:58.035Z,37.83
2019-03-23T05:59:28.627Z,37.67
2019-03-23T06:01:59.096Z,36.57
2019-03-23T06:04:29.587Z,37.17
2019-03-23T06:07:00.071Z,38.83
2019-03-23T06:09:30.635Z,39.40
2019-03-23T06:12:01.127Z,37.43
2019-03-23T06:14:32.353Z,38.43
2019-03-23T06:17:02.956Z,40.23
2019-03-23T06:19:33.765Z,39.77
2019-03-23T06:22:04.506Z,40.53
2019-03-23T06:24:36.256Z,37.03
2019-03-23T06:27:07.317Z,38.70
2019-03-23T06:29:37.835Z,38.23
2019-03-23T06:32:08.444Z,40.40
2019-03-23T06:34:39.149Z,37.73
2019-03-23T06:37:09.587Z,35.80
2019-03-23T06:39:40.328Z,36.47
2019-03-23T06:42:10.814Z,33.63
2019-03-23T06:44:41.350Z,32.67
2019-03-23T06:47:11.936Z,27.07
2019-03-23T06:49:42.528Z,12.10
2019-03-23T06:52:13.055Z,11.53
2019-03-23T06:54:43.769Z,10.10
2019-03-23T06:57:14.495Z,8.57
2019-03-23T06:59:44.993Z,9.93
2019-03-23T07:02:15.615Z,7.62
2019-03-23T07:04:46.228Z,6.70
2019-03-23T07:07:16.946Z,6.83
2019-03-23T07:09:47.488Z,5.92
2019-03-23T07:12:18.518Z,5.87
2019-03-23T07:14:50.127Z,5.25
2019-03-23T07:17:23.177Z,5.25
2019-03-23T07:19:54.610Z,5.87
2019-03-23T07:22:25.735Z,6.12
2019-03-23T07:24:57.225Z,6.33
2019-03-23T07:27:28.431Z,6.30
2019-03-23T07:29:59.083Z,5.85
2019-03-23T07:32:29.952Z,5.90
2019-03-23T07:35:01.487Z,5.97
2019-03-23T07:37:33.359Z,6.87
2019-03-23T07:40:07.892Z,6.08
2019-03-23T07:42:48.707Z,7.47
2019-03-23T07:45:35.280Z,7.25
2019-03-23T07:48:08.404Z,6.95
2019-03-23T07:50:42.376Z,7.62
2019-03-23T07:53:13.134Z,7.35
2019-03-23T07:55:45.725Z,7.80
2019-03-23T07:58:20.097Z,7.95
2019-03-23T08:00:51.934Z,8.03
2019-03-23T08:03:22.635Z,7.90
2019-03-23T08:06:00.816Z,6.87
2019-03-23T08:08:32.505Z,6.33
2019-03-23T08:11:03.489Z,5.62
2019-03-23T08:13:34.130Z,5.80
2019-03-23T08:16:05.009Z,5.80
2019-03-23T08:18:37.048Z,5.17
2019-03-23T08:21:08.309Z,5.33
2019-03-23T08:23:38.819Z,6.47
2019-03-23T08:26:09.648Z,5.95
2019-03-23T08:28:40.280Z,6.45
2019-03-23T08:31:10.888Z,6.65
2019-03-23T08:33:41.707Z,4.83
2019-03-23T08:36:14.101Z,5.42
2019-03-23T08:38:44.818Z,6.87
2019-03-23T08:41:18.972Z,5.97
2019-03-23T08:43:49.556Z,6.22
2019-03-23T08:46:20.311Z,5.45
2019-03-23T08:48:50.924Z,6.08
2019-03-23T08:51:21.474Z,5.72
2019-03-23T08:53:52.107Z,5.37
2019-03-23T08:56:22.724Z,4.97
2019-03-23T08:58:51.308Z,5.45
2019-03-23T09:01:22.067Z,5.00
2019-03-23T09:03:52.923Z,5.45
2019-03-23T09:06:23.469Z,5.08
2019-03-23T09:08:53.976Z,4.37
2019-03-23T09:11:24.598Z,4.60
2019-03-23T09:13:55.329Z,4.62
2019-03-23T09:16:26.097Z,4.72
2019-03-23T09:18:56.870Z,4.15
2019-03-23T09:21:27.484Z,4.75
2019-03-23T09:23:58.168Z,4.72
2019-03-23T09:26:28.789Z,4.90
2019-03-23T09:28:59.370Z,4.72
2019-03-23T09:31:29.917Z,5.95
2019-03-23T09:34:00.487Z,5.60
2019-03-23T09:36:31.193Z,5.22
2019-03-23T09:39:01.838Z,4.85
2019-03-23T09:41:41.156Z,6.17
2019-03-23T09:44:11.688Z,5.75
2019-03-23T09:46:42.348Z,5.45
2019-03-23T09:49:13.012Z,6.37
2019-03-23T09:52:51.052Z,5.78
2019-03-23T09:55:28.680Z,5.95
2019-03-23T09:57:59.988Z,5.65
2019-03-23T10:00:30.991Z,6.70
2019-03-23T10:03:07.901Z,6.87
2019-03-23T10:05:39.590Z,6.40
2019-03-23T10:08:11.713Z,6.30
2019-03-23T10:10:46.490Z,7.35
2019-03-23T10:13:27.733Z,6.00
2019-03-23T10:16:17.770Z,6.40
2019-03-23T10:18:58.849Z,6.60
2019-03-23T10:21:38.291Z,7.00
2019-03-23T10:24:28.348Z,6.58
2019-03-23T10:27:03.833Z,7.42
2019-03-23T10:29:39.868Z,6.85
2019-03-23T10:32:27.965Z,6.75
2019-03-23T10:35:10.883Z,7.53
2019-03-23T10:37:58.174Z,7.10
2019-03-23T10:40:47.780Z,7.03
2019-03-23T10:43:36.213Z,6.67
2019-03-23T10:46:27.643Z,8.35
2019-03-23T10:49:28.085Z,7.75
2019-03-23T10:52:21.311Z,8.28
2019-03-23T10:55:11.465Z,8.10
2019-03-23T10:58:01.324Z,10.55
2019-03-23T11:00:50.322Z,11.00
2019-03-23T11:03:39.083Z,14.03
2019-03-23T11:06:26.123Z,11.20
2019-03-23T11:09:27.209Z,9.73
2019-03-23T11:12:16.543Z,9.68
2019-03-23T11:15:03.139Z,9.30
2019-03-23T11:17:45.371Z,9.50
2019-03-23T11:20:33.727Z,8.80
2019-03-23T11:23:19.449Z,9.90
2019-03-23T11:26:13.604Z,9.43
2019-03-23T11:29:11.613Z,9.78
2019-03-23T11:31:59.631Z,8.75
2019-03-23T11:34:47.375Z,9.15
2019-03-23T11:37:38.112Z,10.10
2019-03-23T11:40:28.618Z,10.03
2019-03-23T11:43:01.706Z,9.90
2019-03-23T11:45:32.467Z,10.70
2019-03-23T11:48:03.022Z,10.40
2019-03-23T11:50:34.011Z,10.48
2019-03-23T11:53:04.663Z,10.38
2019-03-23T11:55:36.695Z,10.68
2019-03-23T11:58:07.389Z,10.32
2019-03-23T12:00:38.118Z,10.68
2019-03-23T12:03:08.806Z,10.98
2019-03-23T12:05:39.429Z,10.75
2019-03-23T12:08:10.068Z,10.05
2019-03-23T12:10:41.412Z,11.00
2019-03-23T12:13:12.179Z,10.08
2019-03-23T12:15:42.819Z,11.25
2019-03-23T12:18:13.396Z,11.00
2019-03-23T12:20:43.932Z,10.93
2019-03-23T12:23:14.545Z,10.08
2019-03-23T12:25:45.367Z,10.13
2019-03-23T12:28:15.849Z,9.98
2019-03-23T12:30:46.493Z,11.25
2019-03-23T12:33:17.055Z,9.75
2019-03-23T12:35:47.733Z,10.75
2019-03-23T12:38:18.319Z,10.68
2019-03-23T12:40:58.449Z,9.70
2019-03-23T12:43:31.971Z,9.88
2019-03-23T12:46:02.561Z,9.10
2019-03-23T12:48:33.196Z,9.20
2019-03-23T12:51:03.750Z,9.78
2019-03-23T12:53:34.286Z,9.48
2019-03-23T12:56:04.987Z,9.65
2019-03-23T12:58:35.614Z,9.15
2019-03-23T13:01:06.394Z,8.83
2019-03-23T13:03:37.016Z,8.45
2019-03-23T13:06:07.775Z,9.30
2019-03-23T13:08:38.451Z,9.53
2019-03-23T13:11:09.230Z,9.15
2019-03-23T13:13:40.019Z,9.88
2019-03-23T13:16:10.539Z,8.50
2019-03-23T13:18:41.192Z,8.38
2019-03-23T13:21:11.831Z,8.78
2019-03-23T13:23:42.453Z,9.13
2019-03-23T13:26:13.134Z,7.75
2019-03-23T13:28:43.713Z,9.40
2019-03-23T13:31:14.337Z,9.53
2019-03-23T13:33:45.103Z,9.00
2019-03-23T13:36:15.719Z,7.37
2019-03-23T13:38:46.369Z,8.30
2019-03-23T13:41:16.978Z,8.95
2019-03-23T13:43:47.531Z,7.40
2019-03-23T13:46:18.191Z,8.18
2019-03-23T13:48:48.929Z,8.08
2019-03-23T13:51:19.478Z,7.90
2019-03-23T13:53:50.208Z,8.25
2019-03-23T13:56:21.148Z,8.25
2019-03-23T13:58:51.669Z,7.85
2019-03-23T14:01:23.313Z,8.43
2019-03-23T14:03:53.973Z,7.83
2019-03-23T14:06:24.571Z,7.78
2019-03-23T14:08:55.269Z,7.03
2019-03-23T14:11:25.916Z,8.68
2019-03-23T14:13:56.611Z,8.45
2019-03-23T14:16:27.167Z,8.10
2019-03-23T14:18:57.899Z,7.78
2019-03-23T14:21:28.530Z,7.85
2019-03-23T14:23:59.148Z,8.95
2019-03-23T14:26:29.707Z,8.43
2019-03-23T14:29:00.265Z,8.88
2019-03-23T14:31:30.995Z,8.78
2019-03-23T14:34:01.667Z,9.35
2019-03-23T14:36:32.355Z,7.62
2019-03-23T14:39:05.587Z,9.58
2019-03-23T14:41:36.330Z,7.70
2019-03-23T14:44:06.970Z,8.10
2019-03-23T14:46:37.780Z,7.70
2019-03-23T14:49:08.431Z,7.95
2019-03-23T14:51:39.032Z,8.05
2019-03-23T14:54:09.587Z,9.78
2019-03-23T14:56:40.148Z,9.58
2019-03-23T14:59:10.830Z,8.95
2019-03-23T15:01:41.375Z,8.68
2019-03-23T15:04:13.193Z,8.65
2019-03-23T15:06:43.856Z,8.83
2019-03-23T15:09:14.564Z,8.85
2019-03-23T15:11:45.198Z,8.80
2019-03-23T15:14:15.895Z,7.80
2019-03-23T15:16:46.437Z,8.35
2019-03-23T15:19:16.987Z,7.75
2019-03-23T15:21:47.630Z,7.90
2019-03-23T15:24:18.166Z,8.38
2019-03-23T15:26:48.906Z,8.58
2019-03-23T15:29:19.658Z,7.55
2019-03-23T15:31:51.085Z,7.62
2019-03-23T15:34:21.683Z,6.75
2019-03-23T15:36:52.268Z,8.10
2019-03-23T15:39:22.895Z,9.08
2019-03-23T15:41:53.424Z,7.65
2019-03-23T15:44:24.332Z,8.60
2019-03-23T15:46:54.813Z,7.10
2019-03-23T15:49:26.567Z,7.30
2019-03-23T15:51:57.163Z,7.35
2019-03-23T15:54:27.804Z,6.70
2019-03-23T15:56:58.446Z,7.12
2019-03-23T15:59:29.088Z,8.03
2019-03-23T16:01:59.565Z,6.78
2019-03-23T16:04:30.129Z,7.25
2019-03-23T16:07:00.874Z,8.28
2019-03-23T16:09:31.612Z,8.95
2019-03-23T16:12:02.360Z,9.40
2019-03-23T16:14:32.915Z,13.00
2019-03-23T16:17:03.755Z,14.58
2019-03-23T16:19:34.447Z,9.65
2019-03-23T16:22:07.015Z,11.68
2019-03-23T16:24:37.786Z,14.28
2019-03-23T16:27:09.395Z,15.45
2019-03-23T16:29:41.222Z,11.53
2019-03-23T16:32:12.007Z,13.35
2019-03-23T16:34:42.602Z,9.70
2019-03-23T16:37:13.091Z,10.00
2019-03-23T16:39:43.636Z,9.33
2019-03-23T16:42:14.428Z,10.85
2019-03-23T16:44:45.211Z,13.22
2019-03-23T16:47:15.847Z,13.08
2019-03-23T16:49:46.468Z,12.00
2019-03-23T16:52:17.035Z,14.20
2019-03-23T16:54:47.802Z,13.05
2019-03-23T16:57:18.664Z,13.60
2019-03-23T16:59:49.272Z,14.55
2019-03-23T17:02:22.901Z,13.08
2019-03-23T17:04:54.660Z,14.35
2019-03-23T17:07:30.148Z,16.37
2019-03-23T17:10:01.124Z,17.23
2019-03-23T17:12:31.979Z,16.50
2019-03-23T17:15:03.677Z,17.23
2019-03-23T17:17:36.275Z,16.87
2019-03-23T17:20:07.563Z,16.00
2019-03-23T17:22:38.535Z,17.05
2019-03-23T17:25:09.998Z,17.05
2019-03-23T17:27:41.757Z,17.70
2019-03-23T17:30:18.341Z,18.07
2019-03-23T17:32:53.447Z,18.95
2019-03-23T17:35:35.860Z,18.25
2019-03-23T17:38:15.087Z,17.98
2019-03-23T17:40:47.210Z,18.90
2019-03-23T17:43:18.977Z,16.97
2019-03-23T17:45:53.999Z,13.72
2019-03-23T17:48:29.860Z,13.08
2019-03-23T17:51:00.991Z,12.78
2019-03-23T17:53:31.777Z,12.28
2019-03-23T17:56:02.446Z,14.80
2019-03-23T17:58:33.049Z,14.58
2019-03-23T18:01:05.485Z,21.12
2019-03-23T18:03:36.274Z,21.87
2019-03-23T18:06:07.243Z,21.35
2019-03-23T18:08:37.989Z,21.80
2019-03-23T18:11:08.719Z,21.93
2019-03-23T18:13:39.280Z,27.62
2019-03-23T18:16:09.902Z,28.25
2019-03-23T18:18:40.542Z,31.80
2019-03-23T18:21:11.333Z,33.67
2019-03-23T18:23:45.101Z,26.05
2019-03-23T18:26:15.785Z,29.42
2019-03-23T18:28:46.638Z,27.45
2019-03-23T18:31:17.266Z,27.10
2019-03-23T18:33:47.918Z,26.85
2019-03-23T18:36:18.672Z,28.77
2019-03-23T18:38:49.416Z,29.37
2019-03-23T18:41:20.093Z,28.83
2019-03-23T18:43:50.761Z,28.70
2019-03-23T18:46:21.459Z,29.82
2019-03-23T18:48:52.150Z,33.80
2019-03-23T18:51:22.852Z,32.90
2019-03-23T18:53:55.104Z,29.75
2019-03-23T18:56:25.616Z,28.38
2019-03-23T18:58:56.207Z,26.05
2019-03-23T19:01:27.076Z,27.13
2019-03-23T19:03:57.686Z,27.07
2019-03-23T19:06:28.235Z,25.48
2019-03-23T19:08:58.917Z,25.97
2019-03-23T19:11:30.136Z,26.77
2019-03-23T19:14:02.369Z,28.98
2019-03-23T19:16:33.495Z,27.80
2019-03-23T19:19:04.168Z,31.25
2019-03-23T19:21:34.807Z,27.93
2019-03-23T19:24:05.561Z,29.80
2019-03-23T19:26:36.161Z,30.30
2019-03-23T19:29:07.437Z,29.30
2019-03-23T19:31:38.388Z,29.67
2019-03-23T19:34:08.988Z,32.15
2019-03-23T19:36:42.293Z,31.95
2019-03-23T19:39:12.888Z,30.77
2019-03-23T19:41:44.809Z,32.13
2019-03-23T19:44:44.841Z,33.98
2019-03-23T19:47:33.927Z,32.58
2019-03-23T19:50:18.523Z,32.23
2019-03-23T19:52:51.821Z,31.02
2019-03-23T19:55:28.198Z,31.57
2019-03-23T19:58:02.295Z,32.05
2019-03-23T20:00:35.982Z,28.35
2019-03-23T20:03:06.868Z,28.70
2019-03-23T20:05:37.516Z,29.02
2019-03-23T20:08:09.305Z,27.65
2019-03-23T20:10:46.343Z,31.37
2019-03-23T20:13:22.875Z,33.35
2019-03-23T20:15:54.222Z,31.65
2019-03-23T20:18:27.863Z,43.63
2019-03-23T20:20:58.529Z,49.05
2019-03-23T20:24:02.561Z,45.12
2019-03-23T20:26:45.957Z,44.03
2019-03-23T20:29:31.531Z,42.08
2019-03-23T20:32:09.582Z,43.02
2019-03-23T20:34:43.958Z,42.13
2019-03-23T20:37:18.455Z,41.75
2019-03-23T20:39:49.748Z,38.65
2019-03-23T20:42:20.649Z,43.00
2019-03-23T20:44:53.676Z,38.88
2019-03-23T20:47:24.932Z,41.88
2019-03-23T20:49:56.736Z,39.58
2019-03-23T20:52:27.488Z,35.15
2019-03-23T20:55:07.871Z,34.08
2019-03-23T20:57:40.798Z,34.33
2019-03-23T21:00:12.576Z,38.45
2019-03-23T21:02:43.527Z,34.73
2019-03-23T21:05:15.975Z,36.10
2019-03-23T21:07:47.016Z,35.33
2019-03-23T21:10:18.670Z,34.25
2019-03-23T21:12:49.848Z,32.13
2019-03-23T21:15:21.577Z,31.27
2019-03-23T21:18:05.890Z,30.90
2019-03-23T21:23:33.534Z,35.75
2019-03-23T21:26:07.763Z,30.08
2019-03-23T21:28:39.797Z,30.57
2019-03-23T21:31:12.812Z,34.25
2019-03-23T21:33:43.817Z,34.88
2019-03-23T21:36:15.387Z,33.80
2019-03-23T21:38:47.104Z,32.73
2019-03-23T21:41:17.768Z,31.35
2019-03-23T21:43:55.168Z,32.90
2019-03-23T21:46:29.132Z,42.88
2019-03-23T21:48:59.923Z,43.38
2019-03-23T21:51:31.060Z,37.08
2019-03-23T21:54:01.702Z,37.75
2019-03-23T21:56:32.414Z,42.25
2019-03-23T21:59:04.273Z,38.35
2019-03-23T22:01:34.955Z,40.17
2019-03-23T22:04:05.989Z,36.98
2019-03-23T22:06:36.588Z,34.13
2019-03-23T22:09:08.230Z,46.58
2019-03-23T22:11:38.888Z,33.80
2019-03-23T22:14:10.020Z,36.73
2019-03-23T22:16:40.767Z,35.00
2019-03-23T22:19:11.848Z,35.28
2019-03-23T22:21:44.406Z,35.65
2019-03-23T22:24:15.430Z,36.05
2019-03-23T22:26:46.013Z,33.63
2019-03-23T22:29:17.148Z,34.80
2019-03-23T22:31:48.095Z,29.80
2019-03-23T22:34:18.757Z,32.03
2019-03-23T22:36:49.390Z,31.52
2019-03-23T22:39:20.091Z,31.73
2019-03-23T22:41:50.608Z,29.35
2019-03-23T22:44:21.420Z,25.32
2019-03-23T22:46:52.255Z,26.75
2019-03-23T22:49:23.064Z,23.80
2019-03-23T22:51:53.645Z,20.72
2019-03-23T22:54:24.316Z,18.75
2019-03-23T22:56:56.241Z,18.07
2019-03-23T22:59:27.114Z,18.27
2019-03-23T23:01:57.920Z,18.67
2019-03-23T23:04:28.680Z,17.10
2019-03-23T23:06:59.440Z,16.87
2019-03-23T23:09:30.221Z,17.07
2019-03-23T23:12:02.453Z,19.25
2019-03-23T23:14:33.252Z,16.42
2019-03-23T23:17:05.088Z,14.85
2019-03-23T23:19:35.640Z,17.20
2019-03-23T23:22:06.481Z,15.98
2019-03-23T23:24:37.171Z,13.45
2019-03-23T23:27:07.939Z,13.93
2019-03-23T23:29:39.756Z,14.78
2019-03-23T23:32:10.469Z,15.20
2019-03-23T23:34:41.203Z,13.65
2019-03-23T23:37:12.036Z,14.73
2019-03-23T23:39:42.720Z,14.18
2019-03-23T23:42:13.407Z,13.55
2019-03-23T23:44:44.153Z,13.03
2019-03-23T23:47:14.845Z,13.08
2019-03-23T23:49:45.586Z,12.13
2019-03-23T23:52:16.172Z,11.65
2019-03-23T23:54:46.775Z,12.45
2019-03-23T23:57:17.523Z,10.93
